ハリファックス の空港の天気 - METARとTAF

ハリファックス国際空港 ( CYHZ / YHZ ) - カナダ ノバスコシア州ハリファックス
飛行場実況気象(Metar)
観測時間07/04 23:00 ADT (07/05 02:00 UTC)
風向・風速西南西 3m/s
視程10km以上
天気現象
少しの雲 雲底高度 4880m
少しの雲 雲底高度 7320m
気温16℃
湿度63%
気圧1015.1hPa
METARCYHZ 050200Z 25006KT 15SM FEW160 FEW240 16/09 A2997 RMK AC1CI1 SLP151 DENSITY ALT 700FT
過去の天気等 Google飛行場航空写真 Wunderground天気予報

過去48時間のMETAR

飛行場予報(TAF)
発表時間: 7/04 23:40 ADT (7/05 02:40 UTC)
予報対象時間: 5日0時 ADT ~ 5日21時 ADT
風向・風速西南西 4m/s
視程10km以上
少しの雲 雲底高度 1830m
5日9時 ADT から
風向・風速西 5m/s
視程10km以上
全天の4割程度の雲 雲底高度 1830m
5日17時 ADT から
風向・風速南西 5m/s
視程10km以上
全天の8割程度の雲 雲底高度 2440m
5日20時 ADT から
風向・風速南 4m/s
視程10km以上
全天の4割程度の雲 雲底高度 2440m
全天の8割程度の雲 雲底高度 4570m
TAF CYHZ 050240Z 0503/0524 25007KT P6SM FEW060
FM051200 28010KT P6SM SCT060
FM052000 22010KT P6SM BKN080
FM052300 19007KT P6SM SCT080 BKN150 RMK NXT FCST BY 050600Z